Time;durP1;ratioP1;P1;durP2;ratioP2;P2;SDS_P1;SDS_P2;PMS_P1;PMS_P2;Temp;Humidity;BMP_temperature;BMP_pressure;BME280_temperature;BME280_humidity;BME280_pressure;Samples;Min_cycle;Max_cycle;Signal;HPM_P1;HPM_P2
2022/04/03 00:01:19;;;;;;;1.67;1.40;;;2.20;93.10;;;;;;5034835;28;20208;-82
2022/04/03 00:03:45;;;;;;;1.43;1.33;;;2.20;93.20;;;;;;5034373;28;20257;-82
2022/04/03 00:06:12;;;;;;;1.77;1.50;;;2.00;93.40;;;;;;5034618;28;20212;-82
2022/04/03 00:08:40;;;;;;;1.47;1.47;;;2.00;93.50;;;;;;5034535;28;20209;-78
2022/04/03 00:11:09;;;;;;;1.90;1.50;;;2.00;93.60;;;;;;5034503;28;20298;-79
2022/04/03 00:13:36;;;;;;;1.40;1.30;;;2.00;93.60;;;;;;5034383;28;20209;-78
2022/04/03 00:16:06;;;;;;;2.23;1.40;;;2.10;93.60;;;;;;5034251;28;20209;-78
2022/04/03 00:18:33;;;;;;;1.50;1.40;;;2.10;93.60;;;;;;5036255;28;20208;-78
2022/04/03 00:21:00;;;;;;;1.60;1.50;;;2.10;93.60;;;;;;5033411;28;20668;-79
2022/04/03 00:23:27;;;;;;;1.77;1.67;;;2.00;93.60;;;;;;5034278;28;20271;-78
2022/04/03 00:25:54;;;;;;;1.60;1.50;;;1.90;93.70;;;;;;5034171;28;20749;-79
2022/04/03 00:28:26;;;;;;;1.47;1.37;;;1.80;93.90;;;;;;5034114;28;20209;-77
2022/04/03 00:30:53;;;;;;;2.17;1.60;;;1.90;93.90;;;;;;5033823;28;20200;-77
2022/04/03 00:33:19;;;;;;;1.87;1.53;;;1.90;93.90;;;;;;5034339;28;20217;-75
2022/04/03 00:35:46;;;;;;;2.67;1.90;;;1.80;94.00;;;;;;5033782;28;20271;-77
2022/04/03 00:38:13;;;;;;;1.90;1.70;;;1.70;93.90;;;;;;5034024;28;20201;-77
2022/04/03 00:40:40;;;;;;;1.67;1.57;;;1.80;94.00;;;;;;5034106;28;20208;-77
2022/04/03 00:43:08;;;;;;;1.80;1.70;;;1.80;93.90;;;;;;5033812;28;20200;-77
2022/04/03 00:45:36;;;;;;;1.60;1.50;;;1.70;93.90;;;;;;5033103;28;20224;-77
2022/04/03 00:48:03;;;;;;;2.60;1.90;;;1.70;94.00;;;;;;5030669;28;20208;-75
2022/04/03 00:50:30;;;;;;;1.70;1.57;;;1.40;94.20;;;;;;5031001;28;20270;-77
2022/04/03 00:52:56;;;;;;;3.70;1.70;;;1.30;94.50;;;;;;5025097;28;20754;-77
2022/04/03 00:55:23;;;;;;;1.57;1.40;;;1.40;94.60;;;;;;5022870;28;20204;-77
2022/04/03 00:57:50;;;;;;;1.50;1.40;;;1.50;94.70;;;;;;5030884;28;20220;-77
2022/04/03 01:00:17;;;;;;;1.57;1.47;;;1.40;94.80;;;;;;5030979;28;20216;-76
2022/04/03 01:02:45;;;;;;;1.60;1.50;;;1.40;94.80;;;;;;5030961;28;20331;-78
2022/04/03 01:05:12;;;;;;;2.23;1.67;;;1.30;94.90;;;;;;5030782;28;20290;-77
2022/04/03 01:07:40;;;;;;;1.90;1.70;;;1.30;95.10;;;;;;5030864;28;20209;-77
2022/04/03 01:10:08;;;;;;;2.37;2.00;;;1.30;95.20;;;;;;5030479;28;20236;-77
2022/04/03 01:12:39;;;;;;;1.50;1.40;;;1.30;95.20;;;;;;5030563;28;20205;-77
2022/04/03 01:15:07;;;;;;;1.80;1.70;;;1.20;95.20;;;;;;5022635;28;20424;-76
2022/04/03 01:17:34;;;;;;;1.60;1.50;;;1.20;95.30;;;;;;5030539;28;20213;-77
2022/04/03 01:20:02;;;;;;;2.73;1.70;;;1.30;95.30;;;;;;5029989;28;20275;-76
2022/04/03 01:22:29;;;;;;;3.97;1.50;;;1.30;95.30;;;;;;5028773;28;20292;-76
2022/04/03 01:24:58;;;;;;;1.73;1.63;;;1.40;95.20;;;;;;5019728;28;20233;-80
2022/04/03 01:27:25;;;;;;;1.43;1.40;;;1.40;95.10;;;;;;5030619;28;20575;-79
2022/04/03 01:29:52;;;;;;;1.40;1.30;;;1.50;95.00;;;;;;5030296;28;20209;-78
2022/04/03 01:32:19;;;;;;;3.30;1.80;;;1.40;95.00;;;;;;5032390;28;20244;-87
2022/04/03 01:34:46;;;;;;;1.47;1.37;;;1.40;95.00;;;;;;5012134;28;20213;-84
2022/04/03 01:37:13;;;;;;;2.00;1.50;;;1.40;94.90;;;;;;5025039;28;20250;-84
2022/04/03 01:39:40;;;;;;;2.40;1.53;;;1.50;95.00;;;;;;5031334;28;20291;-84
2022/04/03 01:42:09;;;;;;;2.57;1.60;;;1.40;95.00;;;;;;5030230;28;20212;-79
2022/04/03 01:44:35;;;;;;;1.80;1.70;;;1.40;95.00;;;;;;5029634;28;20240;-79
2022/04/03 01:47:02;;;;;;;1.83;1.60;;;1.30;94.90;;;;;;5029665;28;20208;-79
2022/04/03 01:49:29;;;;;;;1.50;1.40;;;1.30;95.00;;;;;;5030112;28;20262;-79
2022/04/03 01:51:56;;;;;;;2.30;1.83;;;1.20;95.00;;;;;;5029210;28;20215;-80
2022/04/03 01:54:22;;;;;;;2.93;1.70;;;1.10;95.20;;;;;;5027431;28;20278;-81
2022/04/03 01:56:49;;;;;;;1.83;1.73;;;1.20;95.30;;;;;;5029629;28;20201;-81
2022/04/03 01:59:17;;;;;;;1.90;1.80;;;1.20;95.20;;;;;;5028350;28;20205;-81
2022/04/03 02:01:44;;;;;;;1.43;1.33;;;1.30;95.10;;;;;;5010280;28;20237;-82
2022/04/03 02:04:12;;;;;;;1.80;1.60;;;1.30;95.20;;;;;;5010134;28;20247;-81
2022/04/03 02:06:40;;;;;;;2.20;1.97;;;1.20;95.10;;;;;;5010488;28;20255;-81
2022/04/03 02:09:07;;;;;;;1.47;1.40;;;1.20;95.20;;;;;;5013034;28;20260;-82
2022/04/03 02:11:34;;;;;;;2.07;1.87;;;1.20;95.20;;;;;;5029624;28;20593;-81
2022/04/03 02:14:01;;;;;;;2.90;1.80;;;1.30;95.30;;;;;;5028997;28;20267;-81
2022/04/03 02:16:29;;;;;;;1.60;1.50;;;1.30;95.30;;;;;;5029407;28;20208;-80
2022/04/03 02:18:56;;;;;;;2.30;2.10;;;1.30;95.30;;;;;;5047302;28;20289;-81
2022/04/03 02:21:23;;;;;;;1.63;1.40;;;1.30;95.20;;;;;;5038860;28;20212;-81
2022/04/03 02:23:51;;;;;;;2.17;2.07;;;1.20;95.30;;;;;;5016314;28;20284;-80
2022/04/03 02:26:18;;;;;;;2.03;1.93;;;1.30;95.40;;;;;;5009829;28;20205;-81
2022/04/03 02:28:45;;;;;;;1.83;1.73;;;1.30;95.40;;;;;;5009518;28;20287;-79
2022/04/03 02:31:11;;;;;;;1.70;1.60;;;1.30;95.40;;;;;;5009323;28;20213;-80
2022/04/03 02:33:39;;;;;;;2.00;1.80;;;1.30;95.40;;;;;;5009219;28;20755;-77
2022/04/03 02:36:06;;;;;;;1.40;1.40;;;1.30;95.50;;;;;;5015246;28;20258;-77
2022/04/03 02:38:34;;;;;;;2.07;1.50;;;1.30;95.40;;;;;;5029138;28;20247;-78
2022/04/03 02:41:00;;;;;;;1.60;1.50;;;1.30;95.40;;;;;;5029169;28;20267;-77
2022/04/03 02:43:27;;;;;;;1.70;1.60;;;1.30;95.30;;;;;;5028425;28;20208;-77
2022/04/03 02:45:54;;;;;;;1.87;1.77;;;1.10;95.20;;;;;;5027925;28;20305;-78
2022/04/03 02:48:22;;;;;;;1.47;1.37;;;1.10;95.60;;;;;;5029112;28;20209;-78
2022/04/03 02:50:50;;;;;;;2.83;1.73;;;1.00;95.60;;;;;;5028901;28;20209;-78
2022/04/03 02:53:17;;;;;;;2.13;1.50;;;1.00;95.50;;;;;;5025850;28;20255;-77
2022/04/03 02:55:43;;;;;;;1.70;1.60;;;1.00;95.50;;;;;;5028625;28;20283;-78
2022/04/03 02:58:11;;;;;;;2.60;1.57;;;0.80;95.50;;;;;;5028722;28;20255;-77
2022/04/03 03:00:38;;;;;;;1.63;1.53;;;0.80;95.50;;;;;;5028605;28;20239;-77
2022/04/03 03:03:07;;;;;;;1.77;1.67;;;0.80;95.70;;;;;;5028795;28;20237;-77
2022/04/03 03:05:33;;;;;;;1.80;1.70;;;0.90;95.60;;;;;;5028264;28;20564;-78
2022/04/03 03:08:02;;;;;;;1.63;1.53;;;0.90;95.60;;;;;;5028533;28;20208;-78
2022/04/03 03:10:28;;;;;;;1.70;1.60;;;0.80;95.50;;;;;;5028064;28;20204;-77
2022/04/03 03:12:55;;;;;;;1.43;1.33;;;0.90;95.50;;;;;;5028516;28;20205;-78
2022/04/03 03:15:23;;;;;;;1.70;1.60;;;1.00;95.50;;;;;;5028305;28;20250;-77
2022/04/03 03:17:50;;;;;;;1.53;1.43;;;1.00;95.40;;;;;;5037403;28;20208;-78
2022/04/03 03:20:17;;;;;;;1.50;1.40;;;1.10;95.20;;;;;;5047992;28;20236;-77
2022/04/03 03:22:44;;;;;;;2.63;1.67;;;1.00;95.10;;;;;;5044283;28;20236;-78
2022/04/03 03:25:12;;;;;;;1.50;1.40;;;1.00;95.20;;;;;;5028226;28;20228;-79
2022/04/03 03:27:39;;;;;;;1.70;1.60;;;1.00;95.20;;;;;;5028000;28;20205;-78
2022/04/03 03:30:07;;;;;;;1.77;1.67;;;1.10;95.20;;;;;;5027688;28;20640;-79
2022/04/03 03:32:37;;;;;;;1.97;1.40;;;1.10;95.00;;;;;;5028326;28;20216;-77
2022/04/03 03:35:05;;;;;;;1.53;1.43;;;1.10;95.00;;;;;;5027663;28;20255;-80
2022/04/03 03:37:32;;;;;;;1.70;1.60;;;1.10;95.00;;;;;;5028360;28;20231;-80
2022/04/03 03:39:58;;;;;;;2.37;1.37;;;1.00;95.00;;;;;;5028040;28;20243;-82
2022/04/03 03:42:27;;;;;;;1.67;1.57;;;1.10;95.00;;;;;;5028353;28;20270;-82
2022/04/03 03:44:53;;;;;;;2.00;1.90;;;1.00;95.00;;;;;;5020336;28;20216;-83
2022/04/03 03:47:20;;;;;;;1.50;1.40;;;1.10;95.00;;;;;;5028474;28;20814;-83
2022/04/03 03:49:47;;;;;;;1.50;1.40;;;1.00;95.00;;;;;;5028504;28;20284;-75
2022/04/03 03:52:13;;;;;;;2.10;1.70;;;1.00;95.20;;;;;;5024923;28;20206;-75
2022/04/03 03:54:40;;;;;;;2.40;1.73;;;1.10;95.10;;;;;;5028083;28;20209;-76
2022/04/03 03:57:07;;;;;;;1.90;1.80;;;1.10;95.10;;;;;;5028051;28;20212;-80
2022/04/03 03:59:35;;;;;;;1.57;1.47;;;1.20;95.00;;;;;;5027720;28;20205;-75
2022/04/03 04:02:02;;;;;;;2.20;2.00;;;1.20;94.90;;;;;;5028248;28;20225;-82
2022/04/03 04:04:29;;;;;;;2.60;1.70;;;1.20;94.80;;;;;;5028338;28;20233;-82
2022/04/03 04:06:56;;;;;;;1.90;1.80;;;1.20;94.70;;;;;;5028166;28;20200;-82
2022/04/03 04:09:23;;;;;;;1.90;1.80;;;1.20;94.60;;;;;;5028024;28;20230;-80
2022/04/03 04:11:50;;;;;;;2.10;2.00;;;1.10;94.70;;;;;;5028058;28;20241;-81
2022/04/03 04:14:16;;;;;;;1.63;1.53;;;1.00;94.80;;;;;;5027483;28;20220;-81
2022/04/03 04:16:46;;;;;;;2.00;1.90;;;1.00;94.80;;;;;;5028108;28;20201;-84
2022/04/03 04:19:13;;;;;;;1.63;1.53;;;1.10;94.90;;;;;;5008453;28;20653;-83
2022/04/03 04:21:39;;;;;;;1.70;1.60;;;1.10;94.80;;;;;;5009656;28;20206;-85
2022/04/03 04:24:07;;;;;;;1.90;1.80;;;1.10;94.80;;;;;;5011936;28;20209;-83
2022/04/03 04:26:33;;;;;;;2.53;1.67;;;1.10;94.80;;;;;;5012853;28;20279;-86
2022/04/03 04:29:01;;;;;;;1.90;1.80;;;1.00;94.50;;;;;;5016672;28;20255;-84
2022/04/03 04:31:27;;;;;;;1.63;1.53;;;0.90;94.80;;;;;;5032881;28;20208;-86
2022/04/03 04:33:55;;;;;;;1.67;1.57;;;0.70;95.00;;;;;;5032939;28;20211;-86
2022/04/03 04:36:22;;;;;;;1.90;1.80;;;0.70;95.10;;;;;;5032959;28;20216;-85
2022/04/03 04:38:49;;;;;;;1.77;1.63;;;0.80;95.30;;;;;;5032752;28;20205;-84
2022/04/03 04:41:16;;;;;;;1.80;1.70;;;0.90;95.20;;;;;;5032661;28;20520;-85
2022/04/03 04:43:42;;;;;;;2.17;1.40;;;0.90;95.10;;;;;;5032262;28;20205;-78
2022/04/03 04:46:09;;;;;;;1.93;1.50;;;0.90;95.10;;;;;;5030882;28;20233;-78
2022/04/03 04:48:36;;;;;;;1.77;1.67;;;0.90;95.10;;;;;;5031311;28;20208;-78
2022/04/03 04:51:09;;;;;;;1.43;1.37;;;1.00;95.20;;;;;;5031206;28;20263;-80
2022/04/03 04:53:35;;;;;;;2.17;1.73;;;1.10;95.10;;;;;;5029564;28;20205;-80
2022/04/03 04:56:04;;;;;;;4.77;2.63;;;1.10;95.10;;;;;;5031163;28;20254;-80
2022/04/03 04:58:31;;;;;;;1.80;1.70;;;1.10;95.10;;;;;;5030751;28;20223;-81
2022/04/03 05:00:58;;;;;;;1.67;1.57;;;1.00;95.10;;;;;;5030824;28;20208;-81
2022/04/03 05:03:25;;;;;;;1.57;1.40;;;1.00;95.20;;;;;;5030837;28;20299;-81
2022/04/03 05:05:51;;;;;;;2.30;1.57;;;0.90;95.20;;;;;;5030592;28;20232;-81
2022/04/03 05:08:19;;;;;;;1.60;1.50;;;0.80;95.30;;;;;;5030448;28;20197;-81
2022/04/03 05:10:46;;;;;;;1.23;1.23;;;0.90;95.50;;;;;;5030562;28;20201;-81
2022/04/03 05:13:13;;;;;;;4.00;1.93;;;0.90;95.40;;;;;;5030781;28;20308;-81
2022/04/03 05:15:40;;;;;;;1.73;1.40;;;0.90;95.40;;;;;;5030821;28;20311;-86
2022/04/03 05:18:07;;;;;;;1.33;1.30;;;0.60;95.40;;;;;;5032913;28;20216;-87
2022/04/03 05:20:34;;;;;;;1.63;1.53;;;0.60;95.70;;;;;;5032650;28;20240;-87
2022/04/03 05:23:01;;;;;;;2.07;1.57;;;0.50;95.80;;;;;;5032946;28;20632;-87
2022/04/03 05:25:30;;;;;;;2.07;1.87;;;0.60;95.80;;;;;;5033164;28;20233;-88
2022/04/03 05:27:57;;;;;;;1.60;1.50;;;0.60;95.80;;;;;;5032792;28;20255;-88
2022/04/03 05:30:24;;;;;;;1.50;1.40;;;0.60;95.70;;;;;;5032544;28;20209;-88
2022/04/03 05:32:50;;;;;;;2.17;1.60;;;0.70;95.80;;;;;;5032783;28;20217;-88
2022/04/03 05:35:18;;;;;;;1.23;1.13;;;0.70;95.80;;;;;;5033514;28;20204;-88
2022/04/03 05:37:45;;;;;;;1.47;1.37;;;0.80;95.70;;;;;;5033007;28;20201;-87
2022/04/03 05:40:13;;;;;;;1.43;1.33;;;0.70;95.80;;;;;;5032579;28;20201;-88
2022/04/03 05:42:41;;;;;;;1.30;1.30;;;0.80;95.60;;;;;;5032351;28;20287;-87
2022/04/03 05:45:10;;;;;;;1.50;1.40;;;0.70;95.40;;;;;;5031664;28;20234;-86
2022/04/03 05:47:37;;;;;;;1.80;1.70;;;0.70;95.50;;;;;;5032400;28;20298;-86
2022/04/03 05:50:05;;;;;;;1.43;1.33;;;0.70;95.60;;;;;;5032089;28;20197;-86
2022/04/03 05:52:40;;;;;;;1.30;1.20;;;0.90;95.60;;;;;;5032475;28;20656;-87
2022/04/03 05:55:08;;;;;;;1.90;1.50;;;1.00;95.50;;;;;;5041973;28;20306;-79
2022/04/03 05:57:36;;;;;;;1.57;1.47;;;1.00;95.40;;;;;;5033046;28;20209;-80
2022/04/03 06:00:05;;;;;;;1.77;1.30;;;0.90;95.40;;;;;;5030430;28;20617;-84
2022/04/03 06:02:42;;;;;;;1.37;1.27;;;0.90;95.50;;;;;;5030930;28;20212;-84
2022/04/03 06:05:09;;;;;;;1.47;1.37;;;1.00;95.40;;;;;;5030566;28;20221;-86
2022/04/03 06:07:36;;;;;;;2.67;1.63;;;0.80;95.30;;;;;;5031024;28;20271;-84
2022/04/03 06:10:02;;;;;;;1.50;1.40;;;0.70;95.50;;;;;;5031727;28;20201;-87
2022/04/03 06:12:29;;;;;;;1.50;1.17;;;0.70;95.70;;;;;;5031543;28;20208;-86
2022/04/03 06:14:56;;;;;;;1.43;1.43;;;0.70;95.60;;;;;;5031912;28;20220;-86
2022/04/03 06:17:24;;;;;;;4.13;1.90;;;0.70;95.90;;;;;;5037274;28;20246;-86
2022/04/03 06:19:51;;;;;;;2.33;2.13;;;0.70;96.00;;;;;;5051097;28;20718;-87
2022/04/03 06:22:17;;;;;;;1.83;1.60;;;0.70;96.00;;;;;;5051467;28;20270;-88
2022/04/03 06:24:44;;;;;;;1.80;1.70;;;0.70;96.00;;;;;;5030771;28;20279;-87
2022/04/03 06:27:10;;;;;;;3.90;1.70;;;0.70;95.90;;;;;;5030941;28;20283;-87
2022/04/03 06:29:37;;;;;;;1.50;1.40;;;0.70;96.10;;;;;;5030038;28;20208;-80
2022/04/03 06:32:05;;;;;;;1.73;1.63;;;0.50;96.20;;;;;;5029444;28;20201;-85
2022/04/03 06:34:33;;;;;;;2.30;2.00;;;0.50;96.50;;;;;;5010889;28;20206;-84
2022/04/03 06:36:59;;;;;;;2.27;1.77;;;0.70;96.60;;;;;;5021781;28;20619;-85
2022/04/03 06:39:26;;;;;;;2.07;1.60;;;0.70;96.20;;;;;;5029339;28;20634;-82
2022/04/03 06:41:52;;;;;;;1.40;1.40;;;0.80;96.30;;;;;;5028329;28;20730;-80
2022/04/03 06:44:19;;;;;;;1.60;1.50;;;0.70;96.30;;;;;;5028575;28;20314;-90
2022/04/03 06:46:46;;;;;;;1.17;1.17;;;0.80;96.70;;;;;;5031780;28;20244;-90
2022/04/03 06:49:13;;;;;;;1.67;1.57;;;1.00;96.60;;;;;;5032164;28;20659;-89
2022/04/03 06:51:40;;;;;;;1.40;1.30;;;1.10;96.60;;;;;;5017681;28;20279;-87
2022/04/03 06:54:07;;;;;;;1.63;1.37;;;1.30;96.70;;;;;;5012362;28;20205;-91
2022/04/03 06:56:34;;;;;;;1.50;1.40;;;1.50;96.50;;;;;;5012917;28;20232;-89
2022/04/03 06:59:01;;;;;;;1.57;1.47;;;1.50;96.00;;;;;;5031843;28;20214;-90
2022/04/03 07:01:28;;;;;;;1.70;1.60;;;1.50;96.00;;;;;;5031521;28;20209;-89
2022/04/03 07:03:54;;;;;;;1.20;1.10;;;1.70;96.30;;;;;;5031904;28;20220;-88
2022/04/03 07:06:21;;;;;;;1.60;1.50;;;1.80;95.90;;;;;;5031293;28;20224;-88
2022/04/03 07:08:49;;;;;;;1.33;1.23;;;1.90;96.10;;;;;;5028243;28;20655;-78
2022/04/03 07:11:16;;;;;;;1.67;1.57;;;2.00;95.70;;;;;;5028566;28;20211;-78
2022/04/03 07:13:43;;;;;;;1.50;1.40;;;1.90;95.40;;;;;;5028547;28;20211;-81
2022/04/03 07:16:10;;;;;;;1.50;1.10;;;1.90;95.60;;;;;;5028711;28;20208;-83
2022/04/03 07:18:37;;;;;;;1.30;1.20;;;2.00;95.60;;;;;;5044397;28;20211;-82
2022/04/03 07:21:07;;;;;;;2.07;1.57;;;2.10;95.30;;;;;;5049166;28;20287;-86
2022/04/03 07:23:33;;;;;;;1.53;1.43;;;2.20;95.40;;;;;;5051018;28;20208;-86
2022/04/03 07:26:05;;;;;;;1.40;1.30;;;2.30;95.20;;;;;;5050142;28;20232;-86
2022/04/03 07:28:32;;;;;;;1.40;1.30;;;2.30;94.70;;;;;;5049775;28;20200;-87
2022/04/03 07:30:59;;;;;;;2.20;1.27;;;2.40;94.60;;;;;;5050463;28;20808;-80
2022/04/03 07:33:26;;;;;;;1.40;1.30;;;2.60;94.50;;;;;;5048329;28;20212;-80
2022/04/03 07:35:54;;;;;;;2.43;1.40;;;2.60;94.20;;;;;;5045366;28;20208;-80
2022/04/03 07:38:20;;;;;;;2.93;1.37;;;2.60;94.20;;;;;;5028131;28;20263;-79
2022/04/03 07:40:47;;;;;;;1.17;1.13;;;2.60;94.60;;;;;;5029790;28;20208;-80
2022/04/03 07:43:16;;;;;;;0.87;0.87;;;2.60;93.80;;;;;;5028056;28;20208;-80
2022/04/03 07:45:43;;;;;;;1.03;1.03;;;2.60;94.00;;;;;;5027973;28;20595;-78
2022/04/03 07:48:10;;;;;;;2.00;1.50;;;2.60;93.70;;;;;;5028825;28;20430;-84
2022/04/03 07:50:37;;;;;;;0.77;0.77;;;2.40;93.80;;;;;;5029256;28;20271;-81
2022/04/03 07:53:04;;;;;;;1.87;1.60;;;2.40;93.90;;;;;;5028597;28;20456;-75
2022/04/03 07:55:31;;;;;;;2.10;1.73;;;2.40;94.00;;;;;;5028684;28;20212;-77
2022/04/03 07:57:58;;;;;;;2.20;1.80;;;2.50;94.20;;;;;;5031295;28;20283;-78
2022/04/03 08:00:26;;;;;;;2.73;1.70;;;2.50;94.20;;;;;;5031528;28;20201;-78
2022/04/03 08:02:53;;;;;;;1.40;1.30;;;2.60;94.30;;;;;;5031971;28;20287;-79
2022/04/03 08:05:20;;;;;;;1.73;1.63;;;2.70;93.90;;;;;;5031353;28;20213;-79
2022/04/03 08:07:48;;;;;;;1.40;1.23;;;2.80;93.80;;;;;;5032230;28;20223;-79
2022/04/03 08:10:16;;;;;;;1.37;1.17;;;2.70;93.80;;;;;;5032042;28;20204;-79
2022/04/03 08:12:45;;;;;;;2.17;1.70;;;2.70;93.60;;;;;;5032204;28;20201;-80
2022/04/03 08:15:13;;;;;;;1.30;1.20;;;2.60;93.70;;;;;;5031537;28;20220;-81
2022/04/03 08:17:43;;;;;;;1.57;1.47;;;2.70;93.80;;;;;;5039843;28;20212;-80
2022/04/03 08:20:11;;;;;;;1.10;1.00;;;2.80;93.90;;;;;;5050200;28;20243;-80
2022/04/03 08:22:39;;;;;;;2.83;1.40;;;2.80;93.80;;;;;;5047157;28;20208;-80
2022/04/03 08:25:08;;;;;;;1.00;1.00;;;2.80;93.90;;;;;;5029453;28;20308;-80
2022/04/03 08:27:43;;;;;;;1.37;1.27;;;2.80;93.90;;;;;;5028728;28;20232;-77
2022/04/03 08:30:11;;;;;;;2.33;2.13;;;2.90;94.10;;;;;;5029165;28;20291;-78
2022/04/03 08:32:37;;;;;;;1.87;1.30;;;3.00;94.40;;;;;;5029836;28;20316;-78
2022/04/03 08:35:07;;;;;;;1.50;1.40;;;3.20;94.70;;;;;;5029117;28;20275;-80
2022/04/03 08:37:34;;;;;;;1.73;0.97;;;3.20;93.80;;;;;;5029255;28;20743;-80
2022/04/03 08:40:00;;;;;;;1.07;0.93;;;3.10;93.70;;;;;;5029160;28;20205;-80
2022/04/03 08:42:28;;;;;;;1.20;1.10;;;3.10;93.90;;;;;;5029498;28;20212;-76
2022/04/03 08:44:55;;;;;;;1.93;1.70;;;3.20;93.60;;;;;;5009252;28;20225;-80
2022/04/03 08:47:23;;;;;;;1.40;1.30;;;3.40;93.40;;;;;;5009746;28;20232;-79
2022/04/03 08:49:50;;;;;;;1.15;1.05;;;3.60;92.90;;;;;;5013837;28;20456;-82
2022/04/03 08:52:18;;;;;;;1.57;1.20;;;3.80;93.00;;;;;;5029034;28;20241;-83
2022/04/03 08:54:45;;;;;;;0.90;0.90;;;3.90;92.30;;;;;;5016383;28;20259;-81
2022/04/03 08:57:12;;;;;;;1.57;0.90;;;4.00;92.10;;;;;;5029222;28;20228;-82
2022/04/03 08:59:39;;;;;;;1.80;1.30;;;4.10;91.90;;;;;;5029250;28;20209;-79
2022/04/03 09:02:06;;;;;;;1.10;1.07;;;4.20;91.20;;;;;;5029601;28;20274;-81
2022/04/03 09:04:33;;;;;;;2.67;2.03;;;4.10;91.10;;;;;;5029579;28;20213;-81
2022/04/03 09:07:01;;;;;;;0.90;0.90;;;4.30;91.80;;;;;;5027630;28;20707;-82
2022/04/03 09:09:29;;;;;;;1.30;1.20;;;4.50;90.90;;;;;;5031756;28;21073;-79
2022/04/03 09:12:13;;;;;;;1.63;0.93;;;4.60;90.40;;;;;;5027894;28;20683;-82
2022/04/03 09:14:50;;;;;;;1.10;1.03;;;4.80;90.10;;;;;;5028527;28;20247;-82
2022/04/03 09:17:33;;;;;;;1.93;0.90;;;4.90;90.10;;;;;;5032892;28;20250;-82
2022/04/03 09:20:03;;;;;;;1.17;1.07;;;5.00;88.60;;;;;;5047644;28;20622;-80
2022/04/03 09:22:30;;;;;;;1.40;1.30;;;5.10;86.50;;;;;;5015889;28;20213;-80
2022/04/03 09:24:58;;;;;;;1.60;1.33;;;5.20;86.80;;;;;;5008409;28;20632;-79
2022/04/03 09:27:25;;;;;;;1.30;1.20;;;5.30;85.30;;;;;;5008511;28;20332;-79
2022/04/03 09:30:02;;;;;;;1.17;1.17;;;5.20;84.30;;;;;;5027620;28;20256;-79
2022/04/03 09:32:29;;;;;;;0.90;0.90;;;5.20;83.40;;;;;;5027930;28;20670;-77
2022/04/03 09:34:57;;;;;;;1.00;1.00;;;5.10;81.70;;;;;;5027890;28;20639;-77
2022/04/03 09:37:24;;;;;;;1.03;0.93;;;5.10;82.40;;;;;;5028092;28;20213;-77
2022/04/03 09:39:51;;;;;;;1.00;1.00;;;5.20;83.30;;;;;;5036842;28;20257;-75
2022/04/03 09:42:20;;;;;;;1.10;1.10;;;5.30;82.00;;;;;;5048353;28;20307;-75
2022/04/03 09:44:49;;;;;;;1.10;1.00;;;5.30;81.80;;;;;;5048227;28;20238;-74
2022/04/03 09:47:24;;;;;;;1.00;1.00;;;5.40;81.60;;;;;;5027699;28;20584;-75
2022/04/03 09:49:54;;;;;;;1.00;0.90;;;5.20;81.50;;;;;;5027239;28;20240;-77
2022/04/03 09:52:41;;;;;;;1.00;1.00;;;5.30;82.10;;;;;;5024126;28;20213;-77
2022/04/03 09:55:14;;;;;;;1.10;1.07;;;5.50;81.90;;;;;;5027396;28;20411;-78
2022/04/03 09:57:43;;;;;;;0.97;0.97;;;5.50;81.30;;;;;;5027820;28;20193;-80
2022/04/03 10:00:10;;;;;;;2.63;1.17;;;5.50;81.30;;;;;;5027652;28;20204;-76
2022/04/03 10:02:37;;;;;;;1.20;1.20;;;5.50;81.70;;;;;;5027145;28;20236;-75
2022/04/03 10:05:04;;;;;;;1.97;1.13;;;5.50;81.50;;;;;;5028358;28;20208;-81
2022/04/03 10:07:32;;;;;;;7.55;1.10;;;5.40;81.30;;;;;;5027670;28;20503;-69
2022/04/03 10:10:00;;;;;;;2.07;1.27;;;5.60;84.60;;;;;;5027198;28;20270;-71
2022/04/03 10:12:26;;;;;;;0.87;0.87;;;5.60;82.10;;;;;;5027378;28;20991;-69
2022/04/03 10:14:54;;;;;;;1.97;1.80;;;5.50;81.00;;;;;;5026908;28;20235;-73
2022/04/03 10:17:21;;;;;;;3.00;1.33;;;5.60;81.80;;;;;;5026422;28;20213;-80
2022/04/03 10:19:51;;;;;;;1.40;1.30;;;5.50;78.40;;;;;;5024177;28;20267;-81
2022/04/03 10:22:22;;;;;;;1.10;1.00;;;5.50;78.10;;;;;;5031216;28;20213;-80
2022/04/03 10:24:53;;;;;;;1.60;1.50;;;5.50;75.90;;;;;;5007652;28;20201;-80
2022/04/03 10:27:24;;;;;;;2.73;1.13;;;5.40;75.30;;;;;;5023061;28;20236;-81
2022/04/03 10:29:55;;;;;;;0.80;0.80;;;5.60;75.40;;;;;;5026943;28;20232;-79
2022/04/03 10:32:27;;;;;;;1.93;1.00;;;5.80;76.00;;;;;;5026823;28;20201;-79
2022/04/03 10:34:56;;;;;;;2.97;2.13;;;6.10;76.10;;;;;;5026940;28;20280;-80
2022/04/03 10:37:25;;;;;;;1.30;1.20;;;6.30;75.60;;;;;;5027172;28;20608;-80
2022/04/03 10:39:54;;;;;;;1.33;1.20;;;6.60;75.80;;;;;;5027819;28;20204;-79
2022/04/03 10:42:26;;;;;;;1.73;0.90;;;6.70;75.70;;;;;;5022928;28;20217;-79
2022/04/03 10:45:18;;;;;;;1.07;0.90;;;6.40;74.50;;;;;;5006554;28;20623;-81
2022/04/03 10:47:49;;;;;;;0.97;0.90;;;6.20;75.50;;;;;;5006729;28;20348;-79
2022/04/03 10:50:16;;;;;;;1.97;1.80;;;6.00;76.50;;;;;;5006947;28;20210;-80
2022/04/03 10:52:57;;;;;;;1.40;1.30;;;6.20;76.50;;;;;;5007180;28;20279;-79
2022/04/03 10:55:29;;;;;;;1.00;1.00;;;6.30;75.50;;;;;;5020289;28;20273;-81
2022/04/03 10:58:02;;;;;;;0.80;0.80;;;6.40;75.80;;;;;;5026007;28;20266;-81
2022/04/03 11:00:40;;;;;;;0.80;0.80;;;6.40;74.30;;;;;;5025810;28;20232;-81
2022/04/03 11:03:33;;;;;;;0.80;0.80;;;6.40;75.60;;;;;;5027577;28;20192;-80
2022/04/03 11:06:29;;;;;;;0.87;0.87;;;6.70;75.70;;;;;;5028115;28;20193;-82
2022/04/03 11:09:09;;;;;;;1.67;0.73;;;6.90;72.80;;;;;;5027748;28;20208;-82
2022/04/03 11:11:41;;;;;;;2.90;1.27;;;7.00;73.10;;;;;;5026579;28;20204;-82
2022/04/03 11:14:09;;;;;;;1.23;1.13;;;7.20;73.70;;;;;;5026363;28;20205;-82
2022/04/03 11:16:54;;;;;;;1.80;0.90;;;7.20;73.60;;;;;;5027379;28;20205;-83
2022/04/03 11:19:36;;;;;;;1.23;1.13;;;7.10;73.60;;;;;;5007425;28;20247;-82
2022/04/03 11:22:04;;;;;;;1.27;1.17;;;7.10;73.90;;;;;;5021049;28;20209;-82
2022/04/03 11:24:33;;;;;;;1.47;1.37;;;7.00;74.60;;;;;;5008940;28;20205;-82
2022/04/03 11:27:00;;;;;;;1.03;1.03;;;6.90;74.90;;;;;;5009948;28;20749;-83
2022/04/03 11:29:27;;;;;;;1.10;1.10;;;6.80;75.10;;;;;;5027879;28;20745;-82
2022/04/03 11:31:54;;;;;;;0.90;0.90;;;6.70;75.00;;;;;;5033108;28;20258;-83
2022/04/03 11:34:20;;;;;;;2.53;1.17;;;6.60;75.20;;;;;;5048127;28;20438;-83
2022/04/03 11:36:57;;;;;;;1.33;1.13;;;6.60;75.60;;;;;;5038584;28;20270;-82
2022/04/03 11:39:31;;;;;;;1.27;1.20;;;6.60;76.90;;;;;;5028250;28;20205;-82
2022/04/03 11:42:01;;;;;;;1.43;1.37;;;6.80;76.20;;;;;;5028078;28;20193;-82
2022/04/03 11:44:29;;;;;;;1.20;1.10;;;6.70;75.60;;;;;;5027747;28;20252;-82
2022/04/03 11:46:56;;;;;;;1.53;1.40;;;6.90;76.20;;;;;;5027739;28;20228;-82
2022/04/03 11:49:25;;;;;;;1.03;1.03;;;7.00;76.20;;;;;;5028102;28;20212;-82
2022/04/03 11:51:56;;;;;;;1.30;1.20;;;6.90;75.80;;;;;;5027851;28;20215;-82
2022/04/03 11:54:25;;;;;;;0.80;0.80;;;6.80;76.50;;;;;;5012377;28;20827;-82
2022/04/03 11:56:59;;;;;;;2.70;0.83;;;6.70;76.10;;;;;;5028087;28;20216;-84
2022/04/03 11:59:26;;;;;;;2.23;0.93;;;6.60;77.00;;;;;;5026006;28;20212;-82
2022/04/03 12:01:52;;;;;;;0.97;0.73;;;6.60;77.60;;;;;;5026282;28;20205;-82
2022/04/03 12:04:22;;;;;;;1.20;1.20;;;6.80;76.20;;;;;;5024293;28;20259;-82
2022/04/03 12:06:51;;;;;;;1.00;1.00;;;7.10;76.10;;;;;;5016715;28;20714;-81
2022/04/03 12:09:21;;;;;;;1.70;1.60;;;7.40;75.80;;;;;;5026125;28;20208;-81
2022/04/03 12:11:51;;;;;;;4.37;1.67;;;7.30;75.10;;;;;;5025677;28;20205;-80
2022/04/03 12:14:23;;;;;;;1.10;1.10;;;7.40;76.20;;;;;;5025647;28;20212;-81
2022/04/03 12:16:56;;;;;;;1.17;1.17;;;7.20;76.70;;;;;;5026984;28;20215;-80
2022/04/03 12:19:23;;;;;;;0.70;0.70;;;7.10;77.30;;;;;;5027256;28;20237;-80
2022/04/03 12:21:52;;;;;;;1.60;1.50;;;6.90;77.60;;;;;;5027110;28;20287;-80
2022/04/03 12:24:21;;;;;;;2.50;1.33;;;6.80;79.00;;;;;;5025211;28;20209;-80
2022/04/03 12:26:53;;;;;;;0.93;0.93;;;7.10;79.30;;;;;;5018705;28;20205;-80
2022/04/03 12:29:20;;;;;;;1.47;1.20;;;7.40;78.00;;;;;;5027317;28;20219;-80
2022/04/03 12:31:57;;;;;;;1.57;1.20;;;7.70;78.80;;;;;;5027479;28;20205;-79
2022/04/03 12:34:25;;;;;;;2.77;1.40;;;7.90;78.80;;;;;;5027620;28;20207;-83
2022/04/03 12:36:54;;;;;;;0.90;0.90;;;7.70;77.60;;;;;;5027645;28;20255;-79
2022/04/03 12:39:43;;;;;;;1.20;1.10;;;7.60;78.80;;;;;;5025445;28;20240;-82
2022/04/03 12:42:19;;;;;;;1.43;1.20;;;7.60;78.60;;;;;;5027056;28;20236;-80
2022/04/03 12:44:49;;;;;;;11.50;1.97;;;7.50;78.30;;;;;;5029462;28;20228;-80
2022/04/03 12:47:17;;;;;;;1.93;1.10;;;7.40;79.30;;;;;;5030796;28;20227;-80
2022/04/03 12:49:49;;;;;;;2.20;1.70;;;7.20;79.50;;;;;;5030457;28;20209;-81
2022/04/03 12:52:38;;;;;;;1.70;1.50;;;7.20;80.10;;;;;;5026793;28;20732;-81
2022/04/03 12:55:08;;;;;;;1.73;1.43;;;7.20;80.80;;;;;;5025891;28;20203;-81
2022/04/03 13:00:19;;;;;;;1.17;1.00;;;7.80;80.10;;;;;;5030464;28;20683;-81
2022/04/03 13:02:50;;;;;;;1.10;1.00;;;8.00;79.30;;;;;;5030447;28;20205;-80
2022/04/03 13:05:17;;;;;;;1.77;1.40;;;8.00;77.20;;;;;;5030921;28;20228;-81
2022/04/03 13:07:45;;;;;;;0.80;0.80;;;7.90;78.00;;;;;;5030668;28;20236;-80